Terminal Aerodrome Forecast
Issued by NWS

Current Version | Previous Version | Text Only | Print | Product List | Glossary Off
Versions: 1 2 3 4 5 6 7 8 9 10 11 12 13 14 15 16 17 18 19 20 21 22 23 24 25 26 27 28 29 30 31 32 33

000
FTUS41 KRNK 271123
TAFLWB
TAF
KLWB 271123Z 2712/2812 32004KT P6SM -RASN SCT007 OVC018
     FM271700 32006KT P6SM SCT015 OVC025
     FM272000 31007KT P6SM OVC040
     FM280400 33007KT P6SM -SHSN OVC035=

USA.gov is the U.S. government's official web portal to all federal, state and local government web resources and services.